createdAt,value
2023-03-03T00:04:52.260Z,31.07
2023-03-03T00:09:59.188Z,30.40
2023-03-03T00:15:08.953Z,29.87
2023-03-03T00:20:18.377Z,34.30
2023-03-03T00:25:28.686Z,32.37
2023-03-03T00:30:35.750Z,31.47
2023-03-03T00:35:45.427Z,32.43
2023-03-03T00:40:53.928Z,31.47
2023-03-03T00:46:00.860Z,30.30
2023-03-03T00:51:10.606Z,30.13
2023-03-03T00:56:17.787Z,30.00
2023-03-03T01:01:25.790Z,32.70
2023-03-03T01:06:33.453Z,30.13
2023-03-03T01:11:40.435Z,30.13
2023-03-03T01:16:47.685Z,29.33
2023-03-03T01:21:55.165Z,28.97
2023-03-03T01:27:02.036Z,30.70
2023-03-03T01:32:09.045Z,30.93
2023-03-03T01:37:16.232Z,30.40
2023-03-03T01:42:24.532Z,37.63
2023-03-03T01:47:33.744Z,29.47
2023-03-03T01:52:43.633Z,32.50
2023-03-03T01:57:53.442Z,30.57
2023-03-03T02:03:00.477Z,29.93
2023-03-03T02:08:08.904Z,31.50
2023-03-03T02:13:16.110Z,31.80
2023-03-03T02:18:23.128Z,33.90
2023-03-03T02:23:31.903Z,30.50
2023-03-03T02:28:40.320Z,33.63
2023-03-03T02:33:50.441Z,29.23
2023-03-03T02:38:58.529Z,30.93
2023-03-03T02:44:09.000Z,31.73
2023-03-03T02:49:19.301Z,32.00
2023-03-03T02:54:28.313Z,31.17
2023-03-03T02:59:35.339Z,32.20
2023-03-03T03:04:43.889Z,32.67
2023-03-03T03:09:52.428Z,31.63
2023-03-03T03:14:59.452Z,30.53
2023-03-03T03:20:07.113Z,30.53
2023-03-03T03:25:14.314Z,31.93
2023-03-03T03:30:22.675Z,29.97
2023-03-03T03:35:30.580Z,31.37
2023-03-03T03:40:37.544Z,28.83
2023-03-03T03:45:45.201Z,28.97
2023-03-03T03:50:52.644Z,32.57
2023-03-03T03:56:00.405Z,31.23
2023-03-03T04:01:10.057Z,31.67
2023-03-03T04:06:18.681Z,30.40
2023-03-03T04:11:26.535Z,29.93
2023-03-03T04:16:33.657Z,28.17
2023-03-03T04:21:41.142Z,25.63
2023-03-03T04:26:48.217Z,26.57
2023-03-03T04:31:56.038Z,28.00
2023-03-03T04:37:03.338Z,28.47
2023-03-03T04:42:11.617Z,28.63
2023-03-03T04:47:19.161Z,27.50
2023-03-03T04:52:27.625Z,28.07
2023-03-03T04:57:35.010Z,28.37
2023-03-03T05:02:42.652Z,28.37
2023-03-03T05:07:49.827Z,28.43
2023-03-03T05:12:56.684Z,28.43
2023-03-03T05:18:03.581Z,28.20
2023-03-03T05:23:12.123Z,27.73
2023-03-03T05:28:19.981Z,26.20
2023-03-03T05:33:27.541Z,27.70
2023-03-03T05:38:34.768Z,26.60
2023-03-03T05:43:42.197Z,26.53
2023-03-03T05:48:49.250Z,27.67
2023-03-03T05:53:56.622Z,25.47
2023-03-03T05:59:03.729Z,24.73
2023-03-03T06:04:10.629Z,24.13
2023-03-03T06:09:19.397Z,23.20
2023-03-03T06:14:27.259Z,23.27
2023-03-03T06:19:34.243Z,23.93
2023-03-03T06:24:41.435Z,24.93
2023-03-03T06:29:48.527Z,23.40
2023-03-03T06:34:55.380Z,25.20
2023-03-03T06:40:02.304Z,24.97
2023-03-03T06:45:09.568Z,25.87
2023-03-03T06:50:19.488Z,26.73
2023-03-03T06:55:26.360Z,25.03
2023-03-03T07:00:33.364Z,26.83
2023-03-03T07:05:40.469Z,24.80
2023-03-03T07:10:48.861Z,24.63
2023-03-03T07:21:03.436Z,24.20
2023-03-03T07:26:13.748Z,24.13
2023-03-03T07:31:23.359Z,25.60
2023-03-03T07:36:33.227Z,24.60
2023-03-03T07:41:40.450Z,24.23
2023-03-03T07:46:49.492Z,24.03
2023-03-03T07:51:58.403Z,25.50
2023-03-03T07:57:06.865Z,25.70
2023-03-03T08:02:16.386Z,24.60
2023-03-03T08:07:24.228Z,26.27
2023-03-03T08:12:31.099Z,25.40
2023-03-03T08:17:40.202Z,25.83
2023-03-03T08:22:47.210Z,25.37
2023-03-03T08:27:54.259Z,24.17
2023-03-03T08:33:01.717Z,25.47
2023-03-03T08:38:09.151Z,24.33
2023-03-03T08:43:18.683Z,23.23
2023-03-03T08:48:25.919Z,23.33
2023-03-03T08:53:34.415Z,23.23
2023-03-03T08:58:59.608Z,22.20
2023-03-03T09:03:52.651Z,21.70
2023-03-03T09:08:59.518Z,20.80
2023-03-03T09:14:09.243Z,19.80
2023-03-03T09:19:19.065Z,20.20
2023-03-03T09:24:27.482Z,19.33
2023-03-03T09:29:37.568Z,19.23
2023-03-03T09:34:44.930Z,17.83
2023-03-03T09:39:54.714Z,20.90
2023-03-03T09:45:03.960Z,20.80
2023-03-03T09:50:13.877Z,19.73
2023-03-03T09:55:20.611Z,21.23
2023-03-03T10:00:27.760Z,20.13
2023-03-03T10:05:34.860Z,20.53
2023-03-03T10:10:43.033Z,19.83
2023-03-03T10:15:51.177Z,20.17
2023-03-03T10:20:59.849Z,19.00
2023-03-03T10:26:08.599Z,19.23
2023-03-03T10:31:19.997Z,18.87
2023-03-03T10:36:30.400Z,19.53
2023-03-03T10:41:36.465Z,19.70
2023-03-03T10:46:46.665Z,20.03
2023-03-03T10:51:56.511Z,22.40
2023-03-03T10:57:06.522Z,21.77
2023-03-03T11:02:16.214Z,21.97
2023-03-03T11:07:25.832Z,21.47
2023-03-03T11:12:35.764Z,21.30
2023-03-03T11:17:45.234Z,22.00
2023-03-03T11:22:54.919Z,20.63
2023-03-03T11:28:03.679Z,21.40
2023-03-03T11:33:12.272Z,22.03
2023-03-03T11:38:21.763Z,21.60
2023-03-03T11:43:37.168Z,21.83
2023-03-03T11:48:44.683Z,21.67
2023-03-03T11:53:52.798Z,22.90
2023-03-03T11:59:01.308Z,21.70
2023-03-03T12:04:09.337Z,22.43
2023-03-03T12:09:17.654Z,21.73
2023-03-03T12:14:25.507Z,22.43
2023-03-03T12:19:34.958Z,22.73
2023-03-03T12:24:44.778Z,22.53
2023-03-03T12:29:52.613Z,22.23
2023-03-03T12:35:02.353Z,23.17
2023-03-03T12:40:10.497Z,24.63
2023-03-03T12:45:20.420Z,23.27
2023-03-03T12:50:28.467Z,22.90
2023-03-03T12:55:38.120Z,23.73
2023-03-03T13:00:46.596Z,24.03
2023-03-03T13:05:56.600Z,21.87
2023-03-03T13:11:04.937Z,22.23
2023-03-03T13:16:16.769Z,23.03
2023-03-03T13:21:21.636Z,24.77
2023-03-03T13:26:32.031Z,24.20
2023-03-03T13:31:41.747Z,23.83
2023-03-03T13:36:52.748Z,24.13
2023-03-03T13:42:03.149Z,23.03
2023-03-03T13:47:11.485Z,24.40
2023-03-03T13:52:21.879Z,24.37
2023-03-03T13:57:30.924Z,25.03
2023-03-03T14:02:38.862Z,23.87
2023-03-03T14:07:49.082Z,24.47
2023-03-03T14:12:56.966Z,24.37
2023-03-03T14:18:06.611Z,24.83
2023-03-03T14:23:16.113Z,24.53
2023-03-03T14:28:25.517Z,25.43
2023-03-03T14:33:32.955Z,25.20
2023-03-03T14:38:42.584Z,25.70
2023-03-03T14:43:51.836Z,25.37
2023-03-03T14:49:01.483Z,26.57
2023-03-03T14:54:11.340Z,25.40
2023-03-03T14:59:21.251Z,26.13
2023-03-03T15:04:31.378Z,26.53
2023-03-03T15:09:43.454Z,25.87
2023-03-03T15:14:53.403Z,25.97
2023-03-03T15:20:04.072Z,26.70
2023-03-03T15:25:14.683Z,25.53
2023-03-03T15:30:23.106Z,26.33
2023-03-03T15:35:32.916Z,26.57
2023-03-03T15:40:42.822Z,26.33
2023-03-03T15:45:52.963Z,26.97
2023-03-03T15:51:02.205Z,27.20
2023-03-03T15:56:11.247Z,26.97
2023-03-03T16:01:20.587Z,27.10
2023-03-03T16:06:28.950Z,28.53
2023-03-03T16:11:37.519Z,28.30
2023-03-03T16:16:45.585Z,28.57
2023-03-03T16:21:52.328Z,29.00
2023-03-03T16:27:00.533Z,29.57
2023-03-03T16:32:09.915Z,29.30
2023-03-03T16:37:17.832Z,29.00
2023-03-03T16:42:26.143Z,30.10
2023-03-03T16:47:34.797Z,29.87
2023-03-03T16:52:44.710Z,29.57
2023-03-03T16:57:53.070Z,31.10
2023-03-03T17:03:02.709Z,30.13
2023-03-03T17:08:11.765Z,29.00
2023-03-03T17:13:21.352Z,29.83
2023-03-03T17:18:29.172Z,29.53
2023-03-03T17:23:40.133Z,30.03
2023-03-03T17:28:46.076Z,30.07
2023-03-03T17:33:55.345Z,30.47
2023-03-03T17:39:03.731Z,30.13
2023-03-03T17:44:13.694Z,29.10
2023-03-03T17:49:21.602Z,30.10
2023-03-03T17:54:31.061Z,29.93
2023-03-03T17:59:41.264Z,30.30
2023-03-03T18:04:48.844Z,30.83
2023-03-03T18:09:59.408Z,31.33
2023-03-03T18:15:08.312Z,31.00
2023-03-03T18:20:18.126Z,31.83
2023-03-03T18:25:28.157Z,31.27
2023-03-03T18:30:37.340Z,33.30
2023-03-03T18:35:47.831Z,31.40
2023-03-03T18:40:57.609Z,32.17
2023-03-03T18:46:04.899Z,32.43
2023-03-03T18:51:12.009Z,32.33
2023-03-03T18:56:21.917Z,31.50
2023-03-03T19:01:31.578Z,31.17
2023-03-03T19:06:38.093Z,31.37
2023-03-03T19:11:47.797Z,31.83
2023-03-03T19:16:56.769Z,32.63
2023-03-03T19:22:05.985Z,30.30
2023-03-03T19:27:15.565Z,33.17
2023-03-03T19:32:26.661Z,33.40
2023-03-03T19:37:34.807Z,32.77
2023-03-03T19:42:44.177Z,34.57
2023-03-03T19:47:53.852Z,34.30
2023-03-03T19:53:02.241Z,34.53
2023-03-03T19:58:12.116Z,35.27
2023-03-03T20:03:20.715Z,32.23
2023-03-03T20:08:30.309Z,33.77
2023-03-03T20:13:37.844Z,32.93
2023-03-03T20:18:44.780Z,35.60
2023-03-03T20:23:53.457Z,34.10
2023-03-03T20:29:02.234Z,35.33
2023-03-03T20:34:09.088Z,36.80
2023-03-03T20:39:18.064Z,39.43
2023-03-03T20:44:30.476Z,36.67
2023-03-03T20:49:40.141Z,36.53
2023-03-03T20:54:50.302Z,36.93
2023-03-03T21:00:00.865Z,36.13
2023-03-03T21:05:10.008Z,33.37
2023-03-03T21:10:21.455Z,34.73
2023-03-03T21:15:29.652Z,36.97
2023-03-03T21:20:37.082Z,35.80
2023-03-03T21:25:45.985Z,30.30
2023-03-03T21:30:55.494Z,37.83
2023-03-03T21:36:03.329Z,37.57
2023-03-03T21:41:11.180Z,37.30
2023-03-03T21:46:21.143Z,37.07
2023-03-03T21:51:29.314Z,35.43
2023-03-03T21:56:37.898Z,30.43
2023-03-03T22:01:44.923Z,31.73
2023-03-03T22:06:53.002Z,31.03
2023-03-03T22:11:59.895Z,30.33
2023-03-03T22:17:07.079Z,30.53
2023-03-03T22:22:14.053Z,31.57
2023-03-03T22:27:21.148Z,31.03
2023-03-03T22:32:28.710Z,32.47
2023-03-03T22:37:35.636Z,30.67
2023-03-03T22:42:42.518Z,30.90
2023-03-03T22:47:49.533Z,29.03
2023-03-03T22:52:56.454Z,29.93
2023-03-03T22:58:06.041Z,32.43
2023-03-03T23:03:14.096Z,34.97
2023-03-03T23:08:22.140Z,35.33
2023-03-03T23:13:29.158Z,30.67
2023-03-03T23:18:36.232Z,30.57
2023-03-03T23:23:44.489Z,30.07
2023-03-03T23:28:51.636Z,29.23
2023-03-03T23:34:00.374Z,30.37
2023-03-03T23:39:08.226Z,31.67
2023-03-03T23:44:15.762Z,35.80
2023-03-03T23:49:24.050Z,30.43
2023-03-03T23:54:31.096Z,31.20
2023-03-03T23:59:38.353Z,34.77
